sensor_id;sensor_type;location;lat;lon;timestamp;P1;durP1;ratioP1;P2;durP2;ratioP2
48993;SDS011;34804;49.214;12.276;2022-07-29T00:02:25;7.95;;;2.60;;
48993;SDS011;34804;49.214;12.276;2022-07-29T00:04:53;8.07;;;2.50;;
48993;SDS011;34804;49.214;12.276;2022-07-29T00:07:19;5.40;;;2.53;;
48993;SDS011;34804;49.214;12.276;2022-07-29T00:09:46;5.55;;;2.78;;
48993;SDS011;34804;49.214;12.276;2022-07-29T00:12:18;5.07;;;2.70;;
48993;SDS011;34804;49.214;12.276;2022-07-29T00:14:51;4.60;;;2.75;;
48993;SDS011;34804;49.214;12.276;2022-07-29T00:17:18;4.55;;;2.67;;
48993;SDS011;34804;49.214;12.276;2022-07-29T00:19:45;5.50;;;2.50;;
48993;SDS011;34804;49.214;12.276;2022-07-29T00:22:12;5.18;;;2.60;;
48993;SDS011;34804;49.214;12.276;2022-07-29T00:24:39;5.13;;;2.70;;
48993;SDS011;34804;49.214;12.276;2022-07-29T00:27:06;6.70;;;2.70;;
48993;SDS011;34804;49.214;12.276;2022-07-29T00:29:32;6.85;;;2.47;;
48993;SDS011;34804;49.214;12.276;2022-07-29T00:32:01;4.63;;;2.30;;
48993;SDS011;34804;49.214;12.276;2022-07-29T00:34:28;4.93;;;2.72;;
48993;SDS011;34804;49.214;12.276;2022-07-29T00:37:14;4.38;;;2.88;;
48993;SDS011;34804;49.214;12.276;2022-07-29T00:39:40;5.28;;;2.67;;
48993;SDS011;34804;49.214;12.276;2022-07-29T00:42:07;4.32;;;2.30;;
48993;SDS011;34804;49.214;12.276;2022-07-29T00:44:36;7.07;;;2.47;;
48993;SDS011;34804;49.214;12.276;2022-07-29T00:47:04;5.47;;;2.92;;
48993;SDS011;34804;49.214;12.276;2022-07-29T00:49:31;5.43;;;3.10;;
48993;SDS011;34804;49.214;12.276;2022-07-29T00:52:03;6.38;;;2.88;;
48993;SDS011;34804;49.214;12.276;2022-07-29T00:57:00;6.45;;;2.63;;
48993;SDS011;34804;49.214;12.276;2022-07-29T00:59:28;7.40;;;2.75;;
48993;SDS011;34804;49.214;12.276;2022-07-29T01:02:01;5.28;;;2.40;;
48993;SDS011;34804;49.214;12.276;2022-07-29T01:04:29;5.70;;;2.65;;
48993;SDS011;34804;49.214;12.276;2022-07-29T01:06:57;6.10;;;2.58;;
48993;SDS011;34804;49.214;12.276;2022-07-29T01:09:25;6.95;;;2.80;;
48993;SDS011;34804;49.214;12.276;2022-07-29T01:12:15;5.75;;;2.63;;
48993;SDS011;34804;49.214;12.276;2022-07-29T01:14:45;6.78;;;2.50;;
48993;SDS011;34804;49.214;12.276;2022-07-29T01:30:58;5.70;;;2.63;;
48993;SDS011;34804;49.214;12.276;2022-07-29T01:33:28;5.60;;;2.30;;
48993;SDS011;34804;49.214;12.276;2022-07-29T01:36:23;8.63;;;2.65;;
48993;SDS011;34804;49.214;12.276;2022-07-29T01:38:58;6.40;;;2.85;;
48993;SDS011;34804;49.214;12.276;2022-07-29T01:41:31;6.68;;;2.78;;
48993;SDS011;34804;49.214;12.276;2022-07-29T01:44:02;6.82;;;2.78;;
48993;SDS011;34804;49.214;12.276;2022-07-29T01:46:45;5.90;;;2.83;;
48993;SDS011;34804;49.214;12.276;2022-07-29T01:49:22;6.20;;;3.05;;
48993;SDS011;34804;49.214;12.276;2022-07-29T01:51:58;5.68;;;2.60;;
48993;SDS011;34804;49.214;12.276;2022-07-29T01:54:37;6.47;;;2.60;;
48993;SDS011;34804;49.214;12.276;2022-07-29T01:57:13;4.78;;;2.15;;
48993;SDS011;34804;49.214;12.276;2022-07-29T01:59:43;4.63;;;2.30;;
48993;SDS011;34804;49.214;12.276;2022-07-29T02:02:13;4.72;;;2.50;;
48993;SDS011;34804;49.214;12.276;2022-07-29T02:04:42;3.95;;;2.13;;
48993;SDS011;34804;49.214;12.276;2022-07-29T02:07:15;7.43;;;2.72;;
48993;SDS011;34804;49.214;12.276;2022-07-29T02:09:45;8.10;;;2.80;;
48993;SDS011;34804;49.214;12.276;2022-07-29T02:12:16;5.95;;;2.40;;
48993;SDS011;34804;49.214;12.276;2022-07-29T02:14:47;6.07;;;2.90;;
48993;SDS011;34804;49.214;12.276;2022-07-29T02:17:20;5.50;;;2.83;;
48993;SDS011;34804;49.214;12.276;2022-07-29T02:19:57;5.32;;;3.00;;
48993;SDS011;34804;49.214;12.276;2022-07-29T02:22:29;6.40;;;2.60;;
48993;SDS011;34804;49.214;12.276;2022-07-29T02:24:58;4.90;;;2.53;;
48993;SDS011;34804;49.214;12.276;2022-07-29T02:27:30;6.40;;;2.70;;
48993;SDS011;34804;49.214;12.276;2022-07-29T02:30:00;7.72;;;2.92;;
48993;SDS011;34804;49.214;12.276;2022-07-29T02:32:30;6.25;;;3.22;;
48993;SDS011;34804;49.214;12.276;2022-07-29T02:34:58;7.85;;;2.85;;
48993;SDS011;34804;49.214;12.276;2022-07-29T02:37:28;5.40;;;2.38;;
48993;SDS011;34804;49.214;12.276;2022-07-29T02:39:56;9.80;;;2.78;;
48993;SDS011;34804;49.214;12.276;2022-07-29T02:42:26;9.52;;;3.10;;
48993;SDS011;34804;49.214;12.276;2022-07-29T02:44:53;11.20;;;3.00;;
48993;SDS011;34804;49.214;12.276;2022-07-29T02:47:27;9.38;;;3.17;;
48993;SDS011;34804;49.214;12.276;2022-07-29T02:50:15;14.00;;;3.47;;
48993;SDS011;34804;49.214;12.276;2022-07-29T02:52:49;11.85;;;3.00;;
48993;SDS011;34804;49.214;12.276;2022-07-29T02:58:08;8.95;;;3.00;;
48993;SDS011;34804;49.214;12.276;2022-07-29T03:00:59;6.47;;;3.20;;
48993;SDS011;34804;49.214;12.276;2022-07-29T03:03:34;6.35;;;2.58;;
48993;SDS011;34804;49.214;12.276;2022-07-29T03:06:03;6.70;;;3.10;;
48993;SDS011;34804;49.214;12.276;2022-07-29T03:08:31;7.03;;;2.88;;
48993;SDS011;34804;49.214;12.276;2022-07-29T03:10:59;5.38;;;2.55;;
48993;SDS011;34804;49.214;12.276;2022-07-29T03:13:27;6.55;;;3.30;;
48993;SDS011;34804;49.214;12.276;2022-07-29T03:15:57;8.35;;;2.90;;
48993;SDS011;34804;49.214;12.276;2022-07-29T03:18:24;6.18;;;2.67;;
48993;SDS011;34804;49.214;12.276;2022-07-29T03:20:52;5.80;;;2.40;;
48993;SDS011;34804;49.214;12.276;2022-07-29T03:23:19;6.25;;;3.05;;
48993;SDS011;34804;49.214;12.276;2022-07-29T03:25:49;6.07;;;3.20;;
48993;SDS011;34804;49.214;12.276;2022-07-29T03:28:16;6.82;;;3.15;;
48993;SDS011;34804;49.214;12.276;2022-07-29T03:30:44;5.50;;;2.70;;
48993;SDS011;34804;49.214;12.276;2022-07-29T03:33:11;6.68;;;3.10;;
48993;SDS011;34804;49.214;12.276;2022-07-29T03:35:39;8.00;;;3.10;;
48993;SDS011;34804;49.214;12.276;2022-07-29T03:38:06;7.57;;;3.10;;
48993;SDS011;34804;49.214;12.276;2022-07-29T03:41:16;7.22;;;3.35;;
48993;SDS011;34804;49.214;12.276;2022-07-29T03:43:28;6.43;;;3.08;;
48993;SDS011;34804;49.214;12.276;2022-07-29T03:45:58;5.93;;;2.65;;
48993;SDS011;34804;49.214;12.276;2022-07-29T03:48:27;5.93;;;2.97;;
48993;SDS011;34804;49.214;12.276;2022-07-29T03:50:56;8.07;;;3.45;;
48993;SDS011;34804;49.214;12.276;2022-07-29T03:53:23;5.40;;;3.03;;
48993;SDS011;34804;49.214;12.276;2022-07-29T03:55:51;8.40;;;3.70;;
48993;SDS011;34804;49.214;12.276;2022-07-29T03:58:20;9.00;;;3.15;;
48993;SDS011;34804;49.214;12.276;2022-07-29T04:00:49;7.05;;;3.13;;
48993;SDS011;34804;49.214;12.276;2022-07-29T04:03:16;8.57;;;3.30;;
48993;SDS011;34804;49.214;12.276;2022-07-29T04:05:43;5.35;;;2.85;;
48993;SDS011;34804;49.214;12.276;2022-07-29T04:08:10;5.35;;;3.00;;
48993;SDS011;34804;49.214;12.276;2022-07-29T04:10:37;7.43;;;3.05;;
48993;SDS011;34804;49.214;12.276;2022-07-29T04:13:04;6.28;;;3.13;;
48993;SDS011;34804;49.214;12.276;2022-07-29T04:15:31;6.22;;;3.15;;
48993;SDS011;34804;49.214;12.276;2022-07-29T04:17:58;7.05;;;3.40;;
48993;SDS011;34804;49.214;12.276;2022-07-29T04:20:25;7.22;;;3.30;;
48993;SDS011;34804;49.214;12.276;2022-07-29T04:22:52;6.65;;;3.13;;
48993;SDS011;34804;49.214;12.276;2022-07-29T04:25:19;6.38;;;3.65;;
48993;SDS011;34804;49.214;12.276;2022-07-29T04:27:46;12.05;;;3.83;;
48993;SDS011;34804;49.214;12.276;2022-07-29T04:30:29;7.63;;;3.55;;
48993;SDS011;34804;49.214;12.276;2022-07-29T04:32:57;7.28;;;3.42;;
48993;SDS011;34804;49.214;12.276;2022-07-29T04:35:24;8.15;;;3.70;;
48993;SDS011;34804;49.214;12.276;2022-07-29T04:37:51;8.25;;;3.80;;
48993;SDS011;34804;49.214;12.276;2022-07-29T04:40:18;6.00;;;3.55;;
48993;SDS011;34804;49.214;12.276;2022-07-29T04:42:45;5.38;;;3.45;;
48993;SDS011;34804;49.214;12.276;2022-07-29T04:45:13;6.10;;;3.53;;
48993;SDS011;34804;49.214;12.276;2022-07-29T04:47:41;9.10;;;3.72;;
48993;SDS011;34804;49.214;12.276;2022-07-29T04:50:08;7.22;;;3.25;;
48993;SDS011;34804;49.214;12.276;2022-07-29T04:52:35;11.73;;;3.50;;
48993;SDS011;34804;49.214;12.276;2022-07-29T04:55:03;8.55;;;3.67;;
48993;SDS011;34804;49.214;12.276;2022-07-29T04:57:31;6.45;;;3.67;;
48993;SDS011;34804;49.214;12.276;2022-07-29T04:59:58;8.23;;;3.50;;
48993;SDS011;34804;49.214;12.276;2022-07-29T05:02:25;6.85;;;3.25;;
48993;SDS011;34804;49.214;12.276;2022-07-29T05:04:52;7.85;;;3.65;;
48993;SDS011;34804;49.214;12.276;2022-07-29T05:07:19;9.88;;;3.70;;
48993;SDS011;34804;49.214;12.276;2022-07-29T05:09:46;9.23;;;3.40;;
48993;SDS011;34804;49.214;12.276;2022-07-29T05:12:13;7.50;;;3.20;;
48993;SDS011;34804;49.214;12.276;2022-07-29T05:14:40;7.13;;;3.00;;
48993;SDS011;34804;49.214;12.276;2022-07-29T05:17:06;6.75;;;3.58;;
48993;SDS011;34804;49.214;12.276;2022-07-29T05:19:33;8.93;;;4.32;;
48993;SDS011;34804;49.214;12.276;2022-07-29T05:22:05;8.02;;;3.67;;
48993;SDS011;34804;49.214;12.276;2022-07-29T05:24:32;7.82;;;3.40;;
48993;SDS011;34804;49.214;12.276;2022-07-29T05:26:59;8.80;;;3.55;;
48993;SDS011;34804;49.214;12.276;2022-07-29T05:29:25;5.63;;;2.78;;
48993;SDS011;34804;49.214;12.276;2022-07-29T05:32:08;7.88;;;2.80;;
48993;SDS011;34804;49.214;12.276;2022-07-29T05:34:35;6.90;;;2.95;;
48993;SDS011;34804;49.214;12.276;2022-07-29T05:37:15;9.85;;;3.05;;
48993;SDS011;34804;49.214;12.276;2022-07-29T05:39:42;9.93;;;3.08;;
48993;SDS011;34804;49.214;12.276;2022-07-29T05:42:16;6.28;;;2.63;;
48993;SDS011;34804;49.214;12.276;2022-07-29T05:44:42;7.95;;;2.78;;
48993;SDS011;34804;49.214;12.276;2022-07-29T05:47:09;11.48;;;3.00;;
48993;SDS011;34804;49.214;12.276;2022-07-29T05:49:36;7.85;;;2.58;;
48993;SDS011;34804;49.214;12.276;2022-07-29T05:52:03;7.38;;;2.55;;
48993;SDS011;34804;49.214;12.276;2022-07-29T05:54:30;8.93;;;3.20;;
48993;SDS011;34804;49.214;12.276;2022-07-29T05:56:57;7.15;;;2.92;;
48993;SDS011;34804;49.214;12.276;2022-07-29T05:59:24;9.52;;;3.80;;
48993;SDS011;34804;49.214;12.276;2022-07-29T06:01:55;9.80;;;3.40;;
48993;SDS011;34804;49.214;12.276;2022-07-29T06:04:23;10.05;;;3.38;;
48993;SDS011;34804;49.214;12.276;2022-07-29T06:06:50;11.05;;;3.17;;
48993;SDS011;34804;49.214;12.276;2022-07-29T06:09:17;5.65;;;2.85;;
48993;SDS011;34804;49.214;12.276;2022-07-29T06:11:44;9.55;;;3.38;;
48993;SDS011;34804;49.214;12.276;2022-07-29T06:14:11;6.78;;;3.15;;
48993;SDS011;34804;49.214;12.276;2022-07-29T06:16:38;11.07;;;3.40;;
48993;SDS011;34804;49.214;12.276;2022-07-29T06:19:05;8.07;;;3.17;;
48993;SDS011;34804;49.214;12.276;2022-07-29T06:21:32;8.70;;;3.38;;
48993;SDS011;34804;49.214;12.276;2022-07-29T06:24:03;5.85;;;2.78;;
48993;SDS011;34804;49.214;12.276;2022-07-29T06:26:31;5.55;;;2.70;;
48993;SDS011;34804;49.214;12.276;2022-07-29T06:29:05;12.25;;;3.25;;
48993;SDS011;34804;49.214;12.276;2022-07-29T06:31:36;7.68;;;2.50;;
48993;SDS011;34804;49.214;12.276;2022-07-29T06:34:04;6.38;;;2.55;;
48993;SDS011;34804;49.214;12.276;2022-07-29T06:36:33;5.90;;;2.58;;
48993;SDS011;34804;49.214;12.276;2022-07-29T06:39:06;6.05;;;2.42;;
48993;SDS011;34804;49.214;12.276;2022-07-29T06:41:33;7.95;;;3.00;;
48993;SDS011;34804;49.214;12.276;2022-07-29T06:44:00;6.28;;;3.05;;
48993;SDS011;34804;49.214;12.276;2022-07-29T06:46:27;5.70;;;2.85;;
48993;SDS011;34804;49.214;12.276;2022-07-29T06:48:55;8.23;;;2.67;;
48993;SDS011;34804;49.214;12.276;2022-07-29T06:51:22;7.43;;;2.72;;
48993;SDS011;34804;49.214;12.276;2022-07-29T06:53:52;7.80;;;2.97;;
48993;SDS011;34804;49.214;12.276;2022-07-29T06:56:31;7.85;;;2.97;;
48993;SDS011;34804;49.214;12.276;2022-07-29T06:59:06;7.70;;;3.17;;
48993;SDS011;34804;49.214;12.276;2022-07-29T07:01:35;5.75;;;2.80;;
48993;SDS011;34804;49.214;12.276;2022-07-29T07:04:03;8.73;;;2.80;;
48993;SDS011;34804;49.214;12.276;2022-07-29T07:06:30;6.35;;;2.40;;
48993;SDS011;34804;49.214;12.276;2022-07-29T07:08:57;5.32;;;2.30;;
48993;SDS011;34804;49.214;12.276;2022-07-29T07:11:24;5.55;;;2.60;;
48993;SDS011;34804;49.214;12.276;2022-07-29T07:13:50;6.50;;;2.80;;
48993;SDS011;34804;49.214;12.276;2022-07-29T07:16:17;5.53;;;2.50;;
48993;SDS011;34804;49.214;12.276;2022-07-29T07:18:44;5.65;;;2.55;;
48993;SDS011;34804;49.214;12.276;2022-07-29T07:21:11;7.53;;;2.30;;
48993;SDS011;34804;49.214;12.276;2022-07-29T07:23:45;5.85;;;2.55;;
48993;SDS011;34804;49.214;12.276;2022-07-29T07:26:12;7.05;;;3.17;;
48993;SDS011;34804;49.214;12.276;2022-07-29T07:28:39;4.95;;;2.47;;
48993;SDS011;34804;49.214;12.276;2022-07-29T07:31:05;7.05;;;2.90;;
48993;SDS011;34804;49.214;12.276;2022-07-29T07:33:32;7.82;;;2.85;;
48993;SDS011;34804;49.214;12.276;2022-07-29T07:35:59;5.60;;;2.50;;
48993;SDS011;34804;49.214;12.276;2022-07-29T07:38:26;4.40;;;2.25;;
48993;SDS011;34804;49.214;12.276;2022-07-29T07:40:53;9.45;;;2.50;;
48993;SDS011;34804;49.214;12.276;2022-07-29T07:43:19;7.07;;;2.90;;
48993;SDS011;34804;49.214;12.276;2022-07-29T07:45:47;9.98;;;2.80;;
48993;SDS011;34804;49.214;12.276;2022-07-29T07:48:14;6.35;;;2.55;;
48993;SDS011;34804;49.214;12.276;2022-07-29T07:50:41;6.03;;;2.70;;
48993;SDS011;34804;49.214;12.276;2022-07-29T07:53:10;6.55;;;2.70;;
48993;SDS011;34804;49.214;12.276;2022-07-29T07:55:40;7.45;;;2.53;;
48993;SDS011;34804;49.214;12.276;2022-07-29T07:58:28;5.82;;;2.50;;
48993;SDS011;34804;49.214;12.276;2022-07-29T08:00:54;6.78;;;2.45;;
48993;SDS011;34804;49.214;12.276;2022-07-29T08:03:21;7.03;;;2.70;;
48993;SDS011;34804;49.214;12.276;2022-07-29T08:05:48;7.55;;;3.75;;
48993;SDS011;34804;49.214;12.276;2022-07-29T08:08:17;7.90;;;2.70;;
48993;SDS011;34804;49.214;12.276;2022-07-29T08:10:44;6.10;;;3.22;;
48993;SDS011;34804;49.214;12.276;2022-07-29T08:13:20;7.78;;;3.60;;
48993;SDS011;34804;49.214;12.276;2022-07-29T08:15:48;6.68;;;3.45;;
48993;SDS011;34804;49.214;12.276;2022-07-29T08:18:24;9.60;;;3.58;;
48993;SDS011;34804;49.214;12.276;2022-07-29T08:20:52;8.02;;;3.25;;
48993;SDS011;34804;49.214;12.276;2022-07-29T08:23:19;6.55;;;3.38;;
48993;SDS011;34804;49.214;12.276;2022-07-29T08:25:46;8.02;;;3.38;;
48993;SDS011;34804;49.214;12.276;2022-07-29T08:28:16;6.82;;;3.67;;
48993;SDS011;34804;49.214;12.276;2022-07-29T08:30:43;8.82;;;3.55;;
48993;SDS011;34804;49.214;12.276;2022-07-29T08:33:10;7.10;;;3.70;;
48993;SDS011;34804;49.214;12.276;2022-07-29T08:35:38;6.80;;;3.85;;
48993;SDS011;34804;49.214;12.276;2022-07-29T08:38:05;65.18;;;6.63;;
48993;SDS011;34804;49.214;12.276;2022-07-29T08:40:33;66.18;;;6.63;;
48993;SDS011;34804;49.214;12.276;2022-07-29T08:43:06;63.20;;;6.70;;
48993;SDS011;34804;49.214;12.276;2022-07-29T08:45:41;71.80;;;7.85;;
48993;SDS011;34804;49.214;12.276;2022-07-29T08:48:14;57.08;;;5.90;;
48993;SDS011;34804;49.214;12.276;2022-07-29T08:50:42;14.35;;;4.57;;
48993;SDS011;34804;49.214;12.276;2022-07-29T08:53:13;10.48;;;4.57;;
48993;SDS011;34804;49.214;12.276;2022-07-29T08:55:42;9.75;;;3.85;;
48993;SDS011;34804;49.214;12.276;2022-07-29T08:58:10;7.50;;;3.80;;
48993;SDS011;34804;49.214;12.276;2022-07-29T09:00:41;6.20;;;3.63;;
48993;SDS011;34804;49.214;12.276;2022-07-29T09:03:15;6.78;;;3.35;;
48993;SDS011;34804;49.214;12.276;2022-07-29T09:05:44;6.97;;;3.80;;
48993;SDS011;34804;49.214;12.276;2022-07-29T09:08:14;7.45;;;3.67;;
48993;SDS011;34804;49.214;12.276;2022-07-29T09:10:42;7.15;;;3.50;;
48993;SDS011;34804;49.214;12.276;2022-07-29T09:13:09;6.28;;;3.38;;
48993;SDS011;34804;49.214;12.276;2022-07-29T09:15:36;6.00;;;3.45;;
48993;SDS011;34804;49.214;12.276;2022-07-29T09:18:03;8.95;;;3.95;;
48993;SDS011;34804;49.214;12.276;2022-07-29T09:20:30;6.68;;;3.80;;
48993;SDS011;34804;49.214;12.276;2022-07-29T09:23:16;5.70;;;3.90;;
48993;SDS011;34804;49.214;12.276;2022-07-29T09:25:49;8.68;;;3.50;;
48993;SDS011;34804;49.214;12.276;2022-07-29T09:28:17;7.20;;;3.63;;
48993;SDS011;34804;49.214;12.276;2022-07-29T09:30:54;6.57;;;3.38;;
48993;SDS011;34804;49.214;12.276;2022-07-29T09:33:23;6.95;;;4.03;;
48993;SDS011;34804;49.214;12.276;2022-07-29T09:36:01;6.43;;;3.60;;
48993;SDS011;34804;49.214;12.276;2022-07-29T09:38:35;10.00;;;4.22;;
48993;SDS011;34804;49.214;12.276;2022-07-29T09:41:05;6.45;;;3.67;;
48993;SDS011;34804;49.214;12.276;2022-07-29T09:43:34;12.25;;;3.92;;
48993;SDS011;34804;49.214;12.276;2022-07-29T09:46:10;6.13;;;3.67;;
48993;SDS011;34804;49.214;12.276;2022-07-29T09:48:38;8.00;;;3.92;;
48993;SDS011;34804;49.214;12.276;2022-07-29T09:51:05;6.80;;;4.00;;
48993;SDS011;34804;49.214;12.276;2022-07-29T09:53:53;6.28;;;3.75;;
48993;SDS011;34804;49.214;12.276;2022-07-29T09:56:23;5.82;;;3.65;;
48993;SDS011;34804;49.214;12.276;2022-07-29T09:59:06;7.20;;;4.00;;
48993;SDS011;34804;49.214;12.276;2022-07-29T10:01:34;7.38;;;4.30;;
48993;SDS011;34804;49.214;12.276;2022-07-29T10:04:02;6.63;;;3.80;;
48993;SDS011;34804;49.214;12.276;2022-07-29T10:06:29;5.75;;;3.53;;
48993;SDS011;34804;49.214;12.276;2022-07-29T10:09:06;6.70;;;3.75;;
48993;SDS011;34804;49.214;12.276;2022-07-29T10:11:37;6.53;;;3.65;;
48993;SDS011;34804;49.214;12.276;2022-07-29T10:14:15;5.20;;;3.50;;
48993;SDS011;34804;49.214;12.276;2022-07-29T10:16:42;7.47;;;3.67;;
48993;SDS011;34804;49.214;12.276;2022-07-29T10:19:09;6.43;;;3.80;;
48993;SDS011;34804;49.214;12.276;2022-07-29T10:21:36;5.78;;;3.67;;
48993;SDS011;34804;49.214;12.276;2022-07-29T10:24:05;6.05;;;3.78;;
48993;SDS011;34804;49.214;12.276;2022-07-29T10:26:40;6.00;;;3.60;;
48993;SDS011;34804;49.214;12.276;2022-07-29T10:29:08;5.70;;;3.72;;
48993;SDS011;34804;49.214;12.276;2022-07-29T10:31:43;6.35;;;3.60;;
48993;SDS011;34804;49.214;12.276;2022-07-29T10:37:52;8.07;;;3.38;;
48993;SDS011;34804;49.214;12.276;2022-07-29T10:40:48;7.32;;;3.35;;
48993;SDS011;34804;49.214;12.276;2022-07-29T10:43:48;5.72;;;3.10;;
48993;SDS011;34804;49.214;12.276;2022-07-29T10:46:16;6.20;;;3.25;;
48993;SDS011;34804;49.214;12.276;2022-07-29T10:54:35;6.05;;;3.20;;
48993;SDS011;34804;49.214;12.276;2022-07-29T10:57:19;8.30;;;3.60;;
48993;SDS011;34804;49.214;12.276;2022-07-29T11:02:43;4.75;;;3.00;;
48993;SDS011;34804;49.214;12.276;2022-07-29T11:05:12;4.97;;;3.13;;
48993;SDS011;34804;49.214;12.276;2022-07-29T11:10:45;6.40;;;2.90;;
48993;SDS011;34804;49.214;12.276;2022-07-29T11:16:15;6.20;;;3.17;;
48993;SDS011;34804;49.214;12.276;2022-07-29T11:21:40;7.13;;;3.03;;
48993;SDS011;34804;49.214;12.276;2022-07-29T11:24:21;7.18;;;3.67;;
48993;SDS011;34804;49.214;12.276;2022-07-29T11:27:13;5.72;;;3.08;;
48993;SDS011;34804;49.214;12.276;2022-07-29T11:32:19;5.30;;;3.30;;
48993;SDS011;34804;49.214;12.276;2022-07-29T11:34:49;6.00;;;3.25;;
48993;SDS011;34804;49.214;12.276;2022-07-29T11:37:44;6.00;;;3.50;;
48993;SDS011;34804;49.214;12.276;2022-07-29T11:40:20;5.47;;;3.25;;
48993;SDS011;34804;49.214;12.276;2022-07-29T11:42:48;5.97;;;3.20;;
48993;SDS011;34804;49.214;12.276;2022-07-29T11:45:21;6.38;;;3.90;;
48993;SDS011;34804;49.214;12.276;2022-07-29T11:48:15;7.57;;;3.60;;
48993;SDS011;34804;49.214;12.276;2022-07-29T11:50:57;5.32;;;3.40;;
48993;SDS011;34804;49.214;12.276;2022-07-29T11:53:25;5.38;;;3.47;;
48993;SDS011;34804;49.214;12.276;2022-07-29T11:55:58;8.05;;;3.60;;
48993;SDS011;34804;49.214;12.276;2022-07-29T11:58:25;8.43;;;3.47;;
48993;SDS011;34804;49.214;12.276;2022-07-29T12:00:53;8.25;;;3.50;;
48993;SDS011;34804;49.214;12.276;2022-07-29T12:03:25;8.20;;;3.55;;
48993;SDS011;34804;49.214;12.276;2022-07-29T12:06:02;5.82;;;3.55;;
48993;SDS011;34804;49.214;12.276;2022-07-29T12:08:42;5.50;;;3.10;;
48993;SDS011;34804;49.214;12.276;2022-07-29T12:11:19;6.10;;;3.38;;
48993;SDS011;34804;49.214;12.276;2022-07-29T12:13:49;7.25;;;3.55;;
48993;SDS011;34804;49.214;12.276;2022-07-29T12:16:16;6.35;;;3.70;;
48993;SDS011;34804;49.214;12.276;2022-07-29T12:18:58;7.28;;;3.38;;
48993;SDS011;34804;49.214;12.276;2022-07-29T12:24:25;7.25;;;3.42;;
48993;SDS011;34804;49.214;12.276;2022-07-29T12:26:53;4.75;;;3.15;;
48993;SDS011;34804;49.214;12.276;2022-07-29T12:29:22;5.97;;;3.13;;
48993;SDS011;34804;49.214;12.276;2022-07-29T12:32:00;4.78;;;3.03;;
48993;SDS011;34804;49.214;12.276;2022-07-29T12:34:29;4.90;;;3.13;;
48993;SDS011;34804;49.214;12.276;2022-07-29T12:36:57;5.47;;;2.97;;
48993;SDS011;34804;49.214;12.276;2022-07-29T12:39:23;5.30;;;3.10;;
48993;SDS011;34804;49.214;12.276;2022-07-29T12:41:53;7.30;;;3.10;;
48993;SDS011;34804;49.214;12.276;2022-07-29T12:44:43;14.50;;;3.42;;
48993;SDS011;34804;49.214;12.276;2022-07-29T12:47:10;8.13;;;3.40;;
48993;SDS011;34804;49.214;12.276;2022-07-29T12:49:37;5.93;;;3.42;;
48993;SDS011;34804;49.214;12.276;2022-07-29T12:52:26;6.53;;;3.60;;
48993;SDS011;34804;49.214;12.276;2022-07-29T12:54:53;5.35;;;3.75;;
48993;SDS011;34804;49.214;12.276;2022-07-29T12:57:20;5.57;;;2.80;;
48993;SDS011;34804;49.214;12.276;2022-07-29T13:02:30;7.15;;;2.88;;
48993;SDS011;34804;49.214;12.276;2022-07-29T13:04:59;7.53;;;3.25;;
48993;SDS011;34804;49.214;12.276;2022-07-29T13:07:28;4.35;;;2.20;;
48993;SDS011;34804;49.214;12.276;2022-07-29T13:10:19;3.90;;;1.98;;
48993;SDS011;34804;49.214;12.276;2022-07-29T13:15:36;4.47;;;1.90;;
48993;SDS011;34804;49.214;12.276;2022-07-29T13:18:04;3.80;;;1.98;;
48993;SDS011;34804;49.214;12.276;2022-07-29T13:20:51;4.53;;;1.80;;
48993;SDS011;34804;49.214;12.276;2022-07-29T13:23:18;3.20;;;1.70;;
48993;SDS011;34804;49.214;12.276;2022-07-29T13:25:45;3.30;;;1.80;;
48993;SDS011;34804;49.214;12.276;2022-07-29T13:28:12;7.10;;;1.90;;
48993;SDS011;34804;49.214;12.276;2022-07-29T13:30:42;3.83;;;1.83;;
48993;SDS011;34804;49.214;12.276;2022-07-29T13:33:10;4.05;;;1.83;;
48993;SDS011;34804;49.214;12.276;2022-07-29T13:35:37;4.03;;;1.90;;
48993;SDS011;34804;49.214;12.276;2022-07-29T13:38:05;3.70;;;1.70;;
48993;SDS011;34804;49.214;12.276;2022-07-29T13:40:32;3.90;;;1.88;;
48993;SDS011;34804;49.214;12.276;2022-07-29T13:43:01;3.80;;;2.00;;
48993;SDS011;34804;49.214;12.276;2022-07-29T13:45:29;3.22;;;1.67;;
48993;SDS011;34804;49.214;12.276;2022-07-29T13:47:56;4.68;;;1.73;;
48993;SDS011;34804;49.214;12.276;2022-07-29T13:50:23;5.03;;;1.90;;
48993;SDS011;34804;49.214;12.276;2022-07-29T13:52:49;3.22;;;1.80;;
48993;SDS011;34804;49.214;12.276;2022-07-29T13:55:17;4.30;;;1.70;;
48993;SDS011;34804;49.214;12.276;2022-07-29T13:57:44;3.42;;;1.80;;
48993;SDS011;34804;49.214;12.276;2022-07-29T14:00:11;3.90;;;1.80;;
48993;SDS011;34804;49.214;12.276;2022-07-29T14:02:39;3.08;;;1.63;;
48993;SDS011;34804;49.214;12.276;2022-07-29T14:05:06;4.13;;;1.70;;
48993;SDS011;34804;49.214;12.276;2022-07-29T14:07:34;4.45;;;1.73;;
48993;SDS011;34804;49.214;12.276;2022-07-29T14:10:01;4.13;;;2.22;;
48993;SDS011;34804;49.214;12.276;2022-07-29T14:12:29;4.78;;;1.80;;
48993;SDS011;34804;49.214;12.276;2022-07-29T14:14:56;5.50;;;2.03;;
48993;SDS011;34804;49.214;12.276;2022-07-29T14:17:23;5.05;;;1.88;;
48993;SDS011;34804;49.214;12.276;2022-07-29T14:19:50;3.55;;;1.75;;
48993;SDS011;34804;49.214;12.276;2022-07-29T14:22:17;3.80;;;1.80;;
48993;SDS011;34804;49.214;12.276;2022-07-29T14:24:48;5.25;;;1.92;;
48993;SDS011;34804;49.214;12.276;2022-07-29T14:27:15;4.28;;;1.98;;
48993;SDS011;34804;49.214;12.276;2022-07-29T14:29:41;5.30;;;2.38;;
48993;SDS011;34804;49.214;12.276;2022-07-29T14:32:09;6.30;;;2.00;;
48993;SDS011;34804;49.214;12.276;2022-07-29T14:34:41;4.87;;;3.13;;
48993;SDS011;34804;49.214;12.276;2022-07-29T14:37:08;4.47;;;1.60;;
48993;SDS011;34804;49.214;12.276;2022-07-29T14:39:41;5.68;;;1.83;;
48993;SDS011;34804;49.214;12.276;2022-07-29T14:42:09;3.55;;;2.08;;
48993;SDS011;34804;49.214;12.276;2022-07-29T14:44:38;4.60;;;2.47;;
48993;SDS011;34804;49.214;12.276;2022-07-29T14:47:07;4.30;;;2.25;;
48993;SDS011;34804;49.214;12.276;2022-07-29T14:49:35;7.63;;;2.80;;
48993;SDS011;34804;49.214;12.276;2022-07-29T14:52:02;5.50;;;2.50;;
48993;SDS011;34804;49.214;12.276;2022-07-29T14:54:29;4.65;;;2.10;;
48993;SDS011;34804;49.214;12.276;2022-07-29T14:56:56;4.05;;;2.10;;
48993;SDS011;34804;49.214;12.276;2022-07-29T14:59:24;4.03;;;2.03;;
48993;SDS011;34804;49.214;12.276;2022-07-29T15:01:51;4.45;;;2.40;;
48993;SDS011;34804;49.214;12.276;2022-07-29T15:04:18;4.15;;;2.30;;
48993;SDS011;34804;49.214;12.276;2022-07-29T15:06:45;5.65;;;2.38;;
48993;SDS011;34804;49.214;12.276;2022-07-29T15:09:12;5.07;;;2.13;;
48993;SDS011;34804;49.214;12.276;2022-07-29T15:11:39;3.30;;;1.95;;
48993;SDS011;34804;49.214;12.276;2022-07-29T15:14:06;4.57;;;2.17;;
48993;SDS011;34804;49.214;12.276;2022-07-29T15:16:37;6.57;;;2.45;;
48993;SDS011;34804;49.214;12.276;2022-07-29T15:19:09;5.57;;;1.90;;
48993;SDS011;34804;49.214;12.276;2022-07-29T15:21:36;5.93;;;2.15;;
48993;SDS011;34804;49.214;12.276;2022-07-29T15:24:24;12.10;;;2.20;;
48993;SDS011;34804;49.214;12.276;2022-07-29T15:26:51;10.02;;;7.03;;
48993;SDS011;34804;49.214;12.276;2022-07-29T15:29:18;40.30;;;27.10;;
48993;SDS011;34804;49.214;12.276;2022-07-29T15:31:45;46.88;;;42.33;;
48993;SDS011;34804;49.214;12.276;2022-07-29T15:34:12;5.40;;;2.05;;
48993;SDS011;34804;49.214;12.276;2022-07-29T15:36:39;14.05;;;2.38;;
48993;SDS011;34804;49.214;12.276;2022-07-29T15:39:21;23.67;;;2.60;;
48993;SDS011;34804;49.214;12.276;2022-07-29T15:41:48;7.22;;;1.85;;
48993;SDS011;34804;49.214;12.276;2022-07-29T15:44:15;8.82;;;1.90;;